createdAt,value
2019-03-20T01:19:19.406Z,8.00
2019-03-20T01:23:27.513Z,9.50
2019-03-20T01:35:50.522Z,6.93
2019-03-20T02:33:35.560Z,6.50
2019-03-20T02:41:51.113Z,14.40
2019-03-20T02:45:59.566Z,9.33
2019-03-20T02:50:07.958Z,12.70
2019-03-20T02:54:16.077Z,8.03
2019-03-20T02:58:24.190Z,6.23
2019-03-20T03:02:32.320Z,11.70
2019-03-20T03:06:40.427Z,13.97
2019-03-20T03:10:48.577Z,7.43
2019-03-20T03:14:56.686Z,5.63
2019-03-20T03:19:04.793Z,7.30
2019-03-20T03:23:12.917Z,10.33
2019-03-20T03:27:21.034Z,6.60
2019-03-20T03:31:29.155Z,10.40
2019-03-20T03:35:37.274Z,5.63
2019-03-20T03:39:45.389Z,7.20
2019-03-20T03:43:53.503Z,7.30
2019-03-20T03:48:01.619Z,9.50
2019-03-20T03:52:09.727Z,7.20
2019-03-20T03:56:17.844Z,8.40
2019-03-20T04:00:25.961Z,8.50
2019-03-20T04:04:34.069Z,6.23
2019-03-20T04:08:42.178Z,6.00
2019-03-20T04:12:50.295Z,7.93
2019-03-20T04:16:58.396Z,5.63
2019-03-20T04:21:06.501Z,7.30
2019-03-20T04:25:14.686Z,13.80
2019-03-20T04:29:22.753Z,7.30
2019-03-20T04:33:30.857Z,6.70
2019-03-20T04:37:38.962Z,5.60
2019-03-20T04:41:47.092Z,5.70
2019-03-20T04:45:55.206Z,11.73
2019-03-20T04:50:03.572Z,6.20
2019-03-20T04:54:11.677Z,6.80
2019-03-20T04:58:19.787Z,7.35
2019-03-20T05:02:27.888Z,5.87
2019-03-20T05:06:35.996Z,10.40
2019-03-20T05:10:44.118Z,8.90
2019-03-20T05:14:52.233Z,9.50
2019-03-20T05:31:22.686Z,8.15
2019-03-20T05:52:00.583Z,8.80
2019-03-20T08:41:24.843Z,7.40
2019-03-20T08:45:32.957Z,10.00
2019-03-20T10:45:11.385Z,10.70
2019-03-20T10:49:19.502Z,9.80
2019-03-20T10:57:35.061Z,10.60
2019-03-20T11:01:43.172Z,7.80
2019-03-20T11:05:51.269Z,8.87
2019-03-20T11:09:59.384Z,9.50
2019-03-20T13:17:03.387Z,6.70
2019-03-20T14:14:54.204Z,7.20
2019-03-20T14:23:10.362Z,7.10
2019-03-20T17:41:51.263Z,6.97
2019-03-20T17:45:59.441Z,6.55
2019-03-20T17:50:10.774Z,6.33
2019-03-20T17:54:18.929Z,8.10
2019-03-20T17:58:27.091Z,7.90
2019-03-20T18:02:35.237Z,7.47
2019-03-20T18:06:43.389Z,9.10
2019-03-20T18:10:51.586Z,9.73
2019-03-20T18:14:59.769Z,8.57
2019-03-20T18:19:07.931Z,7.50
2019-03-20T18:23:16.074Z,7.67
2019-03-20T18:27:24.357Z,10.70
2019-03-20T18:31:32.524Z,10.00
2019-03-20T18:35:40.673Z,9.50
2019-03-20T18:39:48.910Z,101.93
2019-03-20T18:43:57.082Z,113.97
2019-03-20T18:48:05.300Z,249.23
2019-03-20T18:52:13.465Z,277.50
2019-03-20T18:56:21.814Z,321.23
2019-03-20T19:00:30.312Z,14.20
2019-03-20T19:04:38.459Z,13.17
2019-03-20T19:08:46.649Z,11.40
2019-03-20T19:12:54.806Z,6.63
2019-03-20T19:17:02.979Z,11.57
2019-03-20T19:50:04.673Z,12.55
